createdAt,value
2018-03-02T00:02:34.923Z,-5.3
2018-03-02T00:12:34.952Z,-5.27
2018-03-02T00:22:34.981Z,-5.49
2018-03-02T00:32:35.094Z,-5.52
2018-03-02T00:42:35.059Z,-5.8
2018-03-02T00:52:34.948Z,-5.79
2018-03-02T01:02:35.066Z,-6
2018-03-02T01:12:35.077Z,-5.88
2018-03-02T01:22:36.153Z,-6.02
2018-03-02T01:32:35.115Z,-6.13
2018-03-02T01:42:35.014Z,-6.23
2018-03-02T01:52:35.110Z,-6.4
2018-03-02T02:02:35.048Z,-6.42
2018-03-02T02:12:35.135Z,-6.58
2018-03-02T02:22:35.095Z,-6.71
2018-03-02T02:32:35.090Z,-6.64
2018-03-02T02:42:35.148Z,-6.7
2018-03-02T02:52:35.072Z,-6.79
2018-03-02T03:02:35.126Z,-6.73
2018-03-02T03:12:35.082Z,-6.79
2018-03-02T03:22:35.053Z,-6.85
2018-03-02T03:32:35.160Z,-6.99
2018-03-02T03:42:35.099Z,-7.08
2018-03-02T03:52:35.133Z,-7.03
2018-03-02T04:02:35.091Z,-7.15
2018-03-02T04:12:35.161Z,-7.19
2018-03-02T04:22:35.107Z,-7.21
2018-03-02T04:32:35.093Z,-7.29
2018-03-02T04:42:35.137Z,-7.37
2018-03-02T04:52:35.091Z,-7.37
2018-03-02T05:02:35.198Z,-7.41
2018-03-02T05:12:35.100Z,-7.6
2018-03-02T05:22:35.196Z,-7.65
2018-03-02T05:32:35.154Z,-7.69
2018-03-02T05:42:35.159Z,-7.68
2018-03-02T05:52:35.414Z,-7.86
2018-03-02T06:02:35.107Z,-7.8
2018-03-02T06:12:35.181Z,-7.86
2018-03-02T06:22:35.166Z,-7.94
2018-03-02T06:32:35.229Z,-7.94
2018-03-02T06:42:35.172Z,-7.88
2018-03-02T06:52:35.248Z,-7.77
2018-03-02T07:02:35.189Z,-7.56
2018-03-02T07:12:35.241Z,-7.62
2018-03-02T07:22:35.254Z,-7.37
2018-03-02T07:32:35.171Z,-7.15
2018-03-02T07:42:35.232Z,-6.9
2018-03-02T07:52:35.211Z,-6.85
2018-03-02T08:02:35.264Z,-6.81
2018-03-02T08:12:35.244Z,-6.36
2018-03-02T08:22:35.193Z,-6.26
2018-03-02T08:32:35.269Z,-6.24
2018-03-02T08:42:35.343Z,-5.83
2018-03-02T08:52:35.275Z,-5.59
2018-03-02T09:02:35.236Z,-5.34
2018-03-02T09:12:35.287Z,-4.97
2018-03-02T09:22:36.470Z,-4.58
2018-03-02T09:32:35.345Z,-4.54
2018-03-02T09:42:35.317Z,-4.37
2018-03-02T09:52:35.270Z,-3.15
2018-03-02T10:02:35.383Z,-3.08
2018-03-02T10:12:35.263Z,-3.23
2018-03-02T10:22:35.353Z,-2.96
2018-03-02T10:32:35.292Z,-2.82
2018-03-02T10:42:35.346Z,-2.42
2018-03-02T10:52:35.305Z,-2.56
2018-03-02T11:02:35.405Z,-2.17
2018-03-02T11:12:35.417Z,-2.16
2018-03-02T11:22:35.323Z,-1.88
2018-03-02T11:32:35.399Z,-1.59
2018-03-02T11:42:35.301Z,-1.42
2018-03-02T11:52:35.382Z,-1.48
2018-03-02T12:02:35.366Z,-1.13
2018-03-02T12:12:35.408Z,-1
2018-03-02T12:22:35.440Z,-0.81
2018-03-02T12:32:35.422Z,-0.7
2018-03-02T12:42:35.357Z,-1.09
2018-03-02T12:52:35.490Z,-0.95
2018-03-02T13:02:35.397Z,-1.05
2018-03-02T13:12:35.387Z,-0.92
2018-03-02T13:22:35.361Z,-0.8
2018-03-02T13:32:35.440Z,-0.75
2018-03-02T13:42:35.489Z,-0.51
2018-03-02T13:52:35.430Z,-0.44
2018-03-02T14:02:35.461Z,-0.39
2018-03-02T14:12:35.424Z,-0.48
2018-03-02T14:22:36.184Z,-0.47
2018-03-02T14:32:35.481Z,-0.57
2018-03-02T14:42:35.438Z,-0.59
2018-03-02T14:52:35.479Z,-0.57
2018-03-02T15:02:35.649Z,-0.63
2018-03-02T15:12:35.665Z,-1.03
2018-03-02T15:22:35.464Z,-1.15
2018-03-02T15:32:35.544Z,-1.02
2018-03-02T15:42:35.497Z,-1
2018-03-02T15:52:35.580Z,-1.06
2018-03-02T16:02:35.525Z,-1.25
2018-03-02T16:12:35.580Z,-1.31
2018-03-02T16:22:35.583Z,-1.28
2018-03-02T16:32:35.611Z,-1.33
2018-03-02T16:42:35.587Z,-1.49
2018-03-02T16:52:35.518Z,-1.59
2018-03-02T17:02:35.558Z,-1.66
2018-03-02T17:12:35.543Z,-1.84
2018-03-02T17:22:35.635Z,-1.85
2018-03-02T17:32:35.615Z,-1.88
2018-03-02T17:42:35.662Z,-2.21
2018-03-02T17:52:35.672Z,-2.32
2018-03-02T18:02:35.600Z,-2.48
2018-03-02T18:12:35.668Z,-2.43
2018-03-02T18:22:38.239Z,-2.48
2018-03-02T18:32:35.663Z,-2.66
2018-03-02T18:42:35.649Z,-2.75
2018-03-02T18:52:35.736Z,-2.75
2018-03-02T19:02:35.631Z,-2.6
2018-03-02T19:12:35.705Z,-2.86
2018-03-02T19:22:35.656Z,-2.82
2018-03-02T19:32:35.901Z,-2.78
2018-03-02T19:42:36.568Z,-2.96
2018-03-02T19:52:37.299Z,-2.9
2018-03-02T20:02:38.183Z,-2.94
2018-03-02T20:12:37.140Z,-3.02
2018-03-02T20:22:37.368Z,-3.13
2018-03-02T20:32:36.497Z,-3.08
2018-03-02T20:42:35.804Z,-3.22
2018-03-02T20:52:35.940Z,-3.2
2018-03-02T21:02:35.743Z,-3.38
2018-03-02T21:12:35.749Z,-3.32
2018-03-02T21:22:35.705Z,-3.51
2018-03-02T21:32:35.786Z,-3.23
2018-03-02T21:42:35.717Z,-3.02
2018-03-02T21:52:35.794Z,-2.96
2018-03-02T22:02:35.730Z,-3
2018-03-02T22:12:35.793Z,-3.04
2018-03-02T22:22:35.744Z,-3.25
2018-03-02T22:32:35.855Z,-3.25
2018-03-02T22:42:35.755Z,-3.41
2018-03-02T22:52:35.842Z,-3.41
2018-03-02T23:02:35.789Z,-3.39
2018-03-02T23:12:35.919Z,-3.49
2018-03-02T23:22:35.850Z,-3.36
2018-03-02T23:32:35.801Z,-3.41
2018-03-02T23:42:35.878Z,-3.53
2018-03-02T23:52:35.826Z,-3.54
